Time;durP1;ratioP1;P1;durP2;ratioP2;P2;SDS_P1;SDS_P2;PMS_P1;PMS_P2;Temp;Humidity;BMP_temperature;BMP_pressure;BME280_temperature;BME280_humidity;BME280_pressure;Samples;Min_cycle;Max_cycle;Signal;HPM_P1;HPM_P2
2022/01/24 00:01:30;;;;;;;8.93;6.33;;;;;;;-2.80;61.75;100867.47;1735842;81;21020;-43
2022/01/24 00:03:58;;;;;;;10.28;6.50;;;;;;;-2.76;61.77;100864.63;1736095;82;21484;-43
2022/01/24 00:06:25;;;;;;;9.60;6.28;;;;;;;-2.71;61.91;100871.91;1718733;83;21324;-42
2022/01/24 00:08:52;;;;;;;8.88;5.78;;;;;;;-2.72;61.87;100873.75;1724444;82;21028;-43
2022/01/24 00:12:46;;;;;;;9.03;6.50;;;;;;;-2.70;62.24;100875.63;1822868;78;22533;-41
2022/01/24 00:18:03;;;;;;;10.20;7.25;;;;;;;-2.63;62.22;100883.48;1797371;79;21120;-40
2022/01/24 00:28:19;;;;;;;11.10;7.80;;;;;;;-2.63;62.16;100890.11;1775920;79;20951;-41
2022/01/24 00:30:45;;;;;;;15.55;8.58;;;;;;;-2.61;61.98;100893.32;1814932;79;21148;-41
2022/01/24 00:33:11;;;;;;;13.08;8.70;;;;;;;-2.71;62.21;100901.11;1812466;79;20968;-41
2022/01/24 00:35:38;;;;;;;13.18;9.38;;;;;;;-2.75;62.25;100894.11;1815263;79;20996;-41
2022/01/24 00:38:05;;;;;;;15.20;9.23;;;;;;;-2.85;62.45;100897.06;1820199;78;20985;-41
2022/01/24 00:40:39;;;;;;;14.45;8.80;;;;;;;-2.91;62.53;100899.35;1796236;79;21528;-41
2022/01/24 00:43:02;;;;;;;13.20;8.18;;;;;;;-3.03;62.68;100905.17;1802209;79;21141;-41
2022/01/24 00:45:36;;;;;;;11.57;8.15;;;;;;;-3.08;62.94;100906.68;1801296;79;21599;-41
2022/01/24 00:55:45;;;;;;;14.28;8.13;;;;;;;-3.36;63.24;100907.90;1786138;79;21146;-41
2022/01/24 00:58:12;;;;;;;11.70;8.57;;;;;;;-3.43;63.34;100913.00;1808389;79;21511;-40
2022/01/24 01:00:39;;;;;;;11.97;7.90;;;;;;;-3.48;63.45;100911.05;1815316;78;20933;-41
2022/01/24 01:03:06;;;;;;;14.83;9.03;;;;;;;-3.52;63.36;100909.89;1805924;78;21029;-40
2022/01/24 01:05:59;;;;;;;15.75;8.38;;;;;;;-3.54;63.25;100902.19;1795659;79;21020;-40
2022/01/24 01:18:50;;;;;;;15.15;8.85;;;;;;;-3.84;64.03;100908.58;1790276;79;20956;-41
2022/01/24 01:21:17;;;;;;;14.63;9.45;;;;;;;-3.82;63.87;100909.14;1787703;79;21148;-41
2022/01/24 01:23:51;;;;;;;14.00;9.15;;;;;;;-3.86;64.01;100904.02;1787145;79;21079;-41
2022/01/24 01:26:39;;;;;;;13.72;9.75;;;;;;;-3.99;63.96;100915.11;1795061;79;21020;-41
2022/01/24 01:29:08;;;;;;;15.80;9.65;;;;;;;-4.10;64.35;100921.67;1795187;79;21041;-41
2022/01/24 01:34:06;;;;;;;17.05;9.60;;;;;;;-4.24;64.72;100922.38;1717720;80;21935;-41
2022/01/24 01:39:28;;;;;;;14.40;9.75;;;;;;;-4.28;64.96;100915.92;1734664;79;21000;-41
2022/01/24 01:52:54;;;;;;;16.07;10.80;;;;;;;-4.52;65.83;100918.16;1799782;79;20973;-41
2022/01/24 01:55:25;;;;;;;17.73;10.60;;;;;;;-4.48;66.01;100919.33;1769660;79;21830;-41
2022/01/24 01:57:41;;;;;;;15.68;10.30;;;;;;;-4.42;65.89;100919.77;1769450;79;21123;-41
2022/01/24 02:00:09;;;;;;;16.90;10.43;;;;;;;-4.45;65.98;100922.84;1788431;79;21132;-41
2022/01/24 02:02:36;;;;;;;16.10;9.68;;;;;;;-4.36;66.09;100922.86;1800026;79;21019;-41
2022/01/24 02:05:05;;;;;;;14.47;9.78;;;;;;;-4.29;66.00;100924.89;1797268;79;21496;-41
2022/01/24 02:07:33;;;;;;;16.23;10.05;;;;;;;-4.24;65.72;100918.41;1795867;79;21038;-40
2022/01/24 02:10:00;;;;;;;18.30;10.95;;;;;;;-4.33;65.50;100918.43;1789968;79;21041;-40
2022/01/24 02:12:28;;;;;;;14.40;9.20;;;;;;;-4.43;65.67;100914.98;1791003;79;21140;-41
2022/01/24 02:14:59;;;;;;;16.40;10.63;;;;;;;-4.46;65.79;100919.92;1771739;79;21009;-41
2022/01/24 02:17:35;;;;;;;15.35;9.95;;;;;;;-4.50;66.02;100920.05;1767379;79;20962;-41
2022/01/24 02:25:22;;;;;;;14.43;9.58;;;;;;;-4.54;66.10;100920.21;1779104;79;21100;-41
2022/01/24 02:27:22;;;;;;;16.17;10.15;;;;;;;-4.56;65.95;100919.13;1802211;79;20930;-41
2022/01/24 02:30:05;;;;;;;16.53;9.73;;;;;;;-4.62;66.23;100909.42;1804554;79;20949;-41
2022/01/24 02:32:18;;;;;;;15.70;9.15;;;;;;;-4.62;66.23;100913.91;1786192;79;21511;-41
2022/01/24 02:34:48;;;;;;;13.30;8.85;;;;;;;-4.60;66.23;100911.86;1797333;79;21507;-41
2022/01/24 02:37:18;;;;;;;14.80;8.48;;;;;;;-4.67;66.13;100919.86;1782443;79;21138;-40
2022/01/24 02:50:58;;;;;;;12.35;8.33;;;;;;;-4.86;65.14;100915.09;1766411;79;21157;-41
2022/01/24 02:53:14;;;;;;;12.58;7.70;;;;;;;-4.94;65.28;100921.97;1798490;79;21044;-41
2022/01/24 02:55:41;;;;;;;15.00;9.10;;;;;;;-5.02;65.25;100920.14;1764222;79;20997;-41
2022/01/24 02:58:08;;;;;;;14.47;8.50;;;;;;;-5.09;65.41;100918.09;1764363;79;20937;-41
2022/01/24 03:00:35;;;;;;;12.98;8.58;;;;;;;-5.17;65.64;100919.16;1764421;79;21026;-41
2022/01/24 03:03:03;;;;;;;15.00;8.30;;;;;;;-5.23;66.00;100922.70;1801183;79;21543;-41
2022/01/24 03:05:31;;;;;;;16.07;9.08;;;;;;;-5.20;66.19;100920.93;1805315;79;21543;-41
2022/01/24 03:07:59;;;;;;;18.23;8.55;;;;;;;-5.15;66.31;100929.02;1779752;79;20957;-41
2022/01/24 03:10:37;;;;;;;14.07;8.35;;;;;;;-5.07;66.18;100928.73;1774087;79;21022;-41
2022/01/24 03:13:09;;;;;;;14.23;8.90;;;;;;;-5.05;66.03;100925.36;1808003;79;21471;-41
2022/01/24 03:15:28;;;;;;;13.22;9.30;;;;;;;-5.08;65.93;100929.75;1775757;79;20950;-41
2022/01/24 03:17:55;;;;;;;12.35;7.47;;;;;;;-5.07;65.90;100933.20;1801737;79;20925;-41
2022/01/24 03:20:22;;;;;;;10.93;7.67;;;;;;;-5.09;65.69;100926.02;1790688;79;20995;-41
2022/01/24 03:22:48;;;;;;;12.85;7.85;;;;;;;-5.10;65.44;100931.82;1802662;79;20997;-41
2022/01/24 03:25:15;;;;;;;14.90;8.33;;;;;;;-5.16;65.08;100926.58;1805120;79;21083;-41
2022/01/24 03:27:41;;;;;;;13.68;8.08;;;;;;;-5.26;65.20;100945.08;1810790;79;21093;-41
2022/01/24 03:30:10;;;;;;;14.05;8.43;;;;;;;-5.29;65.13;100948.67;1814934;79;20996;-41
2022/01/24 03:32:36;;;;;;;12.47;7.62;;;;;;;-5.35;65.17;100942.41;1808243;79;20961;-41
2022/01/24 03:35:07;;;;;;;11.97;7.87;;;;;;;-5.37;65.13;100953.70;1810359;79;21022;-41
2022/01/24 03:37:34;;;;;;;17.57;8.13;;;;;;;-5.34;64.90;100949.83;1795814;79;21029;-41
2022/01/24 03:40:03;;;;;;;13.88;8.10;;;;;;;-5.41;65.02;100946.42;1783871;80;21143;-41
2022/01/24 03:42:29;;;;;;;12.18;7.90;;;;;;;-5.37;65.04;100945.77;1808457;79;21554;-41
2022/01/24 03:44:59;;;;;;;13.30;8.05;;;;;;;-5.36;64.82;100953.19;1795664;79;21068;-41
2022/01/24 03:50:15;;;;;;;12.78;7.67;;;;;;;-5.48;64.90;100957.58;1775729;79;20984;-41
2022/01/24 03:52:40;;;;;;;12.90;6.45;;;;;;;-5.52;65.25;100961.67;1800949;79;21826;-41
2022/01/24 03:55:07;;;;;;;15.68;8.30;;;;;;;-5.43;65.13;100965.66;1816059;78;21487;-41
2022/01/24 03:57:34;;;;;;;14.90;8.53;;;;;;;-5.44;64.97;100961.40;1816139;79;21011;-41
2022/01/24 04:00:01;;;;;;;16.80;9.13;;;;;;;-5.48;65.14;100970.28;1781174;79;21009;-41
2022/01/24 04:02:28;;;;;;;15.08;9.23;;;;;;;-5.44;65.17;100968.00;1810536;79;21458;-41
2022/01/24 04:04:55;;;;;;;14.13;8.48;;;;;;;-5.42;64.99;100967.29;1790715;79;21125;-42
2022/01/24 04:07:22;;;;;;;13.35;8.58;;;;;;;-5.43;65.13;100966.98;1793131;79;21004;-41
2022/01/24 04:09:49;;;;;;;13.72;8.73;;;;;;;-5.40;65.02;100979.25;1810148;79;20984;-41
2022/01/24 04:12:17;;;;;;;16.12;8.85;;;;;;;-5.43;64.77;100977.05;1779869;80;21015;-41
2022/01/24 04:17:22;;;;;;;14.00;8.85;;;;;;;-5.45;64.57;100968.52;1796785;79;21169;-41
2022/01/24 04:22:38;;;;;;;13.43;8.13;;;;;;;-5.67;64.85;100989.72;1790709;79;21049;-41
2022/01/24 04:25:02;;;;;;;14.10;8.23;;;;;;;-5.80;65.00;100985.82;1789402;79;20898;-41
2022/01/24 04:27:29;;;;;;;13.53;8.43;;;;;;;-5.85;65.07;100990.42;1782388;79;20974;-41
2022/01/24 04:29:56;;;;;;;13.15;8.98;;;;;;;-5.83;65.17;100992.86;1793427;79;21170;-41
2022/01/24 04:32:23;;;;;;;12.85;8.65;;;;;;;-5.82;65.14;100994.48;1797557;79;21065;-40
2022/01/24 04:34:50;;;;;;;14.85;8.70;;;;;;;-5.78;64.94;100998.31;1804651;79;21025;-41
2022/01/24 04:37:17;;;;;;;12.95;8.20;;;;;;;-5.83;64.65;101000.27;1804613;79;21009;-40
2022/01/24 04:39:44;;;;;;;11.33;6.83;;;;;;;-5.98;64.46;100995.81;1791662;79;21025;-40
2022/01/24 04:42:16;;;;;;;12.18;7.53;;;;;;;-6.02;64.36;100991.98;1768487;79;21882;-41
2022/01/24 04:44:55;;;;;;;11.10;7.28;;;;;;;-6.06;64.34;100996.06;1778084;79;21001;-41
2022/01/24 04:47:32;;;;;;;11.35;7.08;;;;;;;-6.08;64.27;101000.73;1762641;79;21536;-41
2022/01/24 04:55:07;;;;;;;10.35;6.90;;;;;;;-6.20;64.31;101006.38;1803582;79;25873;-42
2022/01/24 04:57:34;;;;;;;12.03;7.72;;;;;;;-6.24;64.41;101002.01;1803626;79;20937;-41
2022/01/24 05:00:03;;;;;;;10.60;7.33;;;;;;;-6.25;64.39;100995.64;1801516;79;21012;-41
2022/01/24 05:02:31;;;;;;;12.58;7.35;;;;;;;-6.26;64.42;100997.97;1791797;79;20994;-42
2022/01/24 05:04:58;;;;;;;9.95;6.33;;;;;;;-6.29;64.56;100995.73;1804535;79;21013;-42
2022/01/24 05:07:25;;;;;;;12.05;7.75;;;;;;;-6.28;64.61;100997.36;1806270;79;21369;-41
2022/01/24 05:12:30;;;;;;;13.85;7.87;;;;;;;-6.22;64.70;100996.53;1783901;79;20998;-41
2022/01/24 05:25:49;;;;;;;14.25;8.85;;;;;;;-5.93;64.33;101003.09;1781718;79;21068;-42
2022/01/24 05:28:18;;;;;;;12.45;7.33;;;;;;;-5.90;63.84;101010.08;1777758;79;21570;-41
2022/01/24 05:30:44;;;;;;;11.33;7.33;;;;;;;-5.96;63.36;101001.70;1784087;79;21124;-41
2022/01/24 05:33:11;;;;;;;11.60;7.03;;;;;;;-6.13;62.98;101001.87;1774502;79;21128;-41
2022/01/24 05:35:38;;;;;;;10.68;6.70;;;;;;;-6.26;63.27;100999.30;1781263;79;21049;-41
2022/01/24 05:38:05;;;;;;;11.25;6.87;;;;;;;-6.36;63.53;101003.70;1782381;79;21483;-42
2022/01/24 05:40:31;;;;;;;11.43;6.87;;;;;;;-6.43;63.78;101004.72;1779226;79;20982;-41
2022/01/24 05:42:58;;;;;;;11.68;7.30;;;;;;;-6.41;63.79;101005.33;1753097;79;21008;-41
2022/01/24 05:45:24;;;;;;;10.85;7.05;;;;;;;-6.48;63.93;101010.62;1784196;79;21164;-41
2022/01/24 05:47:51;;;;;;;11.10;7.30;;;;;;;-6.47;64.02;101016.70;1750461;79;20934;-41
2022/01/24 05:50:18;;;;;;;10.93;7.20;;;;;;;-6.49;64.07;101028.00;1785876;79;21063;-42
2022/01/24 05:52:44;;;;;;;14.60;7.60;;;;;;;-6.49;64.19;101031.45;1773280;79;20965;-41
2022/01/24 05:55:12;;;;;;;9.18;6.10;;;;;;;-6.41;64.35;101040.95;1767805;79;21055;-41
2022/01/24 05:57:38;;;;;;;10.25;6.62;;;;;;;-6.37;63.97;101043.47;1758931;79;21094;-42
2022/01/24 06:00:10;;;;;;;11.60;6.67;;;;;;;-6.36;63.55;101050.37;1789721;79;20952;-42
2022/01/24 06:02:40;;;;;;;7.72;5.55;;;;;;;-6.44;63.40;101054.06;1788361;79;21014;-41
2022/01/24 06:05:08;;;;;;;6.70;4.80;;;;;;;-6.52;63.25;101054.27;1783324;79;21020;-41
2022/01/24 06:07:34;;;;;;;7.67;5.12;;;;;;;-6.60;63.27;101052.67;1797313;79;21049;-42
2022/01/24 06:10:01;;;;;;;9.18;5.40;;;;;;;-6.72;63.71;101054.30;1764297;79;21143;-41
2022/01/24 06:12:28;;;;;;;7.70;5.12;;;;;;;-6.82;64.08;101047.30;1794753;79;21151;-42
2022/01/24 06:14:55;;;;;;;8.53;5.45;;;;;;;-6.83;64.44;101048.34;1802148;78;20977;-41
2022/01/24 06:17:22;;;;;;;9.03;5.25;;;;;;;-6.89;65.06;101047.02;1803106;79;21546;-41
2022/01/24 06:19:48;;;;;;;8.70;5.30;;;;;;;-6.85;65.54;101064.05;1808259;79;21029;-41
2022/01/24 06:22:16;;;;;;;8.80;5.45;;;;;;;-6.85;65.54;101064.05;1805395;79;21140;-41
2022/01/24 06:24:42;;;;;;;9.00;5.60;;;;;;;-6.79;65.46;101058.78;1811165;79;20969;-42
2022/01/24 06:27:09;;;;;;;8.75;5.30;;;;;;;-6.68;65.45;101063.41;1795214;79;20941;-41
2022/01/24 06:29:37;;;;;;;9.75;6.35;;;;;;;-6.58;65.30;101062.99;1789917;79;20929;-42
2022/01/24 06:32:05;;;;;;;9.95;5.83;;;;;;;-6.56;65.53;101057.52;1787557;79;21031;-41
2022/01/24 06:34:31;;;;;;;11.08;6.20;;;;;;;-6.46;65.63;101050.00;1815376;79;22073;-41
2022/01/24 06:36:58;;;;;;;9.43;6.17;;;;;;;-6.39;65.63;101050.80;1802207;79;21020;-41
2022/01/24 06:39:25;;;;;;;8.90;6.37;;;;;;;-6.34;65.61;101048.36;1783418;79;21586;-41
2022/01/24 06:42:06;;;;;;;9.58;6.45;;;;;;;-6.37;65.67;101048.75;1783648;79;20988;-41
2022/01/24 06:44:20;;;;;;;10.28;7.08;;;;;;;-6.41;65.87;101052.83;1804859;79;21072;-41
2022/01/24 06:46:47;;;;;;;12.80;7.22;;;;;;;-6.36;66.16;101053.83;1814615;79;21136;-41
2022/01/24 06:49:13;;;;;;;9.30;6.28;;;;;;;-6.20;66.08;101044.15;1790201;79;21038;-40
2022/01/24 06:51:40;;;;;;;10.35;6.50;;;;;;;-6.20;66.08;101044.15;1815333;79;21555;-41
2022/01/24 06:54:06;;;;;;;9.95;6.55;;;;;;;-6.17;66.10;101054.78;1813314;79;21024;-41
2022/01/24 06:56:33;;;;;;;11.80;6.87;;;;;;;-6.12;66.15;101045.73;1812042;79;21001;-41
2022/01/24 06:59:00;;;;;;;12.35;6.95;;;;;;;-6.10;66.15;101046.85;1802061;78;21145;-41
2022/01/24 07:01:26;;;;;;;11.97;7.20;;;;;;;-6.07;66.27;101049.88;1788858;79;20931;-41
2022/01/24 07:03:53;;;;;;;10.90;7.35;;;;;;;-5.96;66.29;101046.59;1785784;79;21531;-41
2022/01/24 07:06:20;;;;;;;11.48;6.85;;;;;;;-5.93;66.27;101046.66;1793245;79;20918;-41
2022/01/24 07:08:47;;;;;;;10.98;7.08;;;;;;;-5.78;66.49;101053.27;1800288;78;21115;-41
2022/01/24 07:11:13;;;;;;;11.63;7.30;;;;;;;-5.61;65.92;101059.36;1814452;78;21127;-40
2022/01/24 07:13:40;;;;;;;13.75;8.00;;;;;;;-5.55;65.58;101063.30;1802203;79;21074;-41
2022/01/24 07:16:07;;;;;;;12.20;6.65;;;;;;;-5.55;65.67;101063.80;1790613;79;21019;-41
2022/01/24 07:21:04;;;;;;;12.98;6.62;;;;;;;-5.52;65.72;101066.86;1781035;80;21047;-41
2022/01/24 07:23:32;;;;;;;14.28;6.65;;;;;;;-5.46;65.41;101077.06;1781038;80;21732;-41
2022/01/24 07:25:59;;;;;;;9.80;6.28;;;;;;;-5.49;65.25;101077.50;1780907;80;21525;-41
2022/01/24 07:28:25;;;;;;;11.18;6.28;;;;;;;-5.56;65.45;101078.84;1785768;79;20994;-41
2022/01/24 07:30:52;;;;;;;9.53;6.33;;;;;;;-5.55;65.64;101078.34;1777351;80;21028;-41
2022/01/24 07:33:19;;;;;;;8.90;6.00;;;;;;;-5.55;65.57;101085.76;1775051;79;21079;-41
2022/01/24 07:35:45;;;;;;;12.58;6.10;;;;;;;-5.48;65.82;101073.33;1781078;80;21008;-41
2022/01/24 07:38:12;;;;;;;9.95;6.17;;;;;;;-5.48;65.82;101073.33;1780969;80;21011;-41
2022/01/24 07:40:42;;;;;;;11.53;6.00;;;;;;;-5.50;65.76;101072.72;1780137;79;21051;-41
2022/01/24 07:43:10;;;;;;;10.72;6.37;;;;;;;-5.49;65.83;101076.17;1783031;79;21082;-41
2022/01/24 07:45:37;;;;;;;10.98;6.78;;;;;;;-5.46;65.86;101075.23;1794873;79;21025;-41
2022/01/24 07:48:06;;;;;;;11.43;6.40;;;;;;;-5.43;65.82;101074.83;1784728;79;21043;-41
2022/01/24 07:50:37;;;;;;;9.03;6.00;;;;;;;-5.35;65.76;101071.11;1774930;80;20917;-41
2022/01/24 07:53:04;;;;;;;7.30;4.70;;;;;;;-5.35;65.48;101061.86;1774393;80;20994;-43
2022/01/24 07:55:30;;;;;;;8.80;5.87;;;;;;;-5.34;65.48;101066.12;1771452;80;20984;-42
2022/01/24 07:57:57;;;;;;;11.53;6.30;;;;;;;-5.31;65.42;101065.69;1779345;79;21029;-42
2022/01/24 08:00:24;;;;;;;9.88;6.17;;;;;;;-5.33;65.47;101054.03;1795623;79;21190;-43
2022/01/24 08:02:51;;;;;;;8.45;5.83;;;;;;;-5.27;65.57;101057.12;1781778;79;21043;-43
2022/01/24 08:05:17;;;;;;;11.00;6.17;;;;;;;-5.20;65.51;101056.27;1768815;80;20950;-43
2022/01/24 08:07:45;;;;;;;9.55;6.40;;;;;;;-5.14;65.47;101062.84;1780910;80;22139;-42
2022/01/24 08:10:12;;;;;;;10.32;6.03;;;;;;;-5.06;65.17;101066.53;1764902;80;21033;-40
2022/01/24 08:12:39;;;;;;;9.30;5.72;;;;;;;-4.97;65.13;101059.13;1780622;80;21745;-40
2022/01/24 08:15:10;;;;;;;9.90;5.97;;;;;;;-4.90;64.71;101055.42;1770043;80;20981;-40
2022/01/24 08:17:36;;;;;;;9.23;5.87;;;;;;;-4.85;64.24;101050.30;1773558;79;21068;-40
2022/01/24 08:20:04;;;;;;;9.65;6.10;;;;;;;-4.83;64.15;101060.64;1796133;79;21002;-40
2022/01/24 08:22:30;;;;;;;10.13;5.97;;;;;;;-4.84;64.21;101052.40;1779423;79;21091;-40
2022/01/24 08:24:57;;;;;;;11.30;6.20;;;;;;;-4.77;64.07;101053.67;1780656;79;21110;-40
2022/01/24 08:27:25;;;;;;;7.65;5.22;;;;;;;-4.72;63.70;101050.68;1776734;79;20961;-40
2022/01/24 08:29:52;;;;;;;8.33;6.00;;;;;;;-4.76;63.79;101052.14;1772579;81;21000;-40
2022/01/24 08:32:18;;;;;;;9.85;6.15;;;;;;;-4.74;63.83;101037.39;1783590;79;21084;-40
2022/01/24 08:34:45;;;;;;;10.13;5.30;;;;;;;-4.76;63.70;101040.75;1789745;79;21002;-40
2022/01/24 08:37:12;;;;;;;6.45;4.87;;;;;;;-4.88;63.70;101042.78;1785345;79;21685;-40
2022/01/24 08:39:39;;;;;;;9.18;5.22;;;;;;;-4.96;63.79;101040.41;1792373;79;21754;-40
2022/01/24 08:42:15;;;;;;;8.65;5.78;;;;;;;-4.99;64.23;101040.86;1802259;79;21589;-40
2022/01/24 08:47:06;;;;;;;7.75;5.58;;;;;;;-4.93;64.58;101036.52;1803163;79;20997;-40
2022/01/24 08:49:33;;;;;;;9.58;6.22;;;;;;;-4.89;64.49;101033.22;1806834;79;21827;-40
2022/01/24 08:52:00;;;;;;;10.13;6.03;;;;;;;-4.88;64.26;101032.20;1804588;79;20898;-40
2022/01/24 08:54:27;;;;;;;9.33;6.33;;;;;;;-4.87;64.56;101039.11;1796832;79;20923;-40
2022/01/24 08:56:54;;;;;;;11.73;5.87;;;;;;;-4.81;64.23;101034.79;1777928;79;21077;-40
2022/01/24 08:59:22;;;;;;;7.87;5.65;;;;;;;-4.73;64.23;101045.09;1786210;79;21483;-40
2022/01/24 09:01:49;;;;;;;7.58;5.40;;;;;;;-4.64;64.18;101050.90;1780267;79;21139;-40
2022/01/24 09:04:17;;;;;;;7.60;5.33;;;;;;;-4.57;63.58;101043.72;1782461;79;21028;-43
2022/01/24 09:06:43;;;;;;;8.35;5.25;;;;;;;-4.73;63.41;101007.23;1772429;81;20922;-40
2022/01/24 09:09:10;;;;;;;10.55;5.58;;;;;;;-4.60;63.35;101040.20;1772739;81;21005;-40
2022/01/24 09:11:37;;;;;;;9.70;5.67;;;;;;;-4.52;63.35;101026.67;1795214;79;20994;-40
2022/01/24 09:14:06;;;;;;;11.28;6.65;;;;;;;-4.53;62.74;101026.37;1804515;79;21220;-40
2022/01/24 09:16:34;;;;;;;9.98;6.12;;;;;;;-4.58;62.69;101031.51;1792954;79;20986;-40
2022/01/24 09:19:01;;;;;;;10.65;6.80;;;;;;;-4.61;62.77;101030.63;1798317;79;20973;-40
2022/01/24 09:21:28;;;;;;;11.35;6.90;;;;;;;-4.58;63.03;101034.16;1804712;79;20929;-40
2022/01/24 09:23:55;;;;;;;13.55;7.10;;;;;;;-4.54;62.82;101035.33;1804773;79;21785;-40
2022/01/24 09:26:22;;;;;;;12.28;7.37;;;;;;;-4.54;63.01;101022.09;1804655;79;22033;-40
2022/01/24 09:28:49;;;;;;;9.68;6.70;;;;;;;-4.51;62.51;101021.17;1804537;79;21526;-40
2022/01/24 09:31:16;;;;;;;8.78;6.05;;;;;;;-4.55;62.52;101023.16;1795486;79;20961;-40
2022/01/24 09:33:42;;;;;;;13.58;7.30;;;;;;;-4.59;62.58;101019.30;1773324;79;21066;-40
2022/01/24 09:36:09;;;;;;;13.90;7.33;;;;;;;-4.53;62.77;101019.23;1772852;81;21587;-40
2022/01/24 09:38:36;;;;;;;12.33;7.28;;;;;;;-4.46;62.82;101021.83;1788297;79;21158;-40
2022/01/24 09:41:06;;;;;;;11.85;7.25;;;;;;;-4.35;62.87;101021.59;1780402;79;21030;-40
2022/01/24 09:43:34;;;;;;;14.38;7.67;;;;;;;-4.27;62.46;101020.80;1804443;79;20993;-40
2022/01/24 09:46:01;;;;;;;11.75;7.08;;;;;;;-4.24;62.45;101016.37;1787525;79;20993;-40
2022/01/24 09:48:30;;;;;;;13.68;7.90;;;;;;;-4.15;62.22;101013.72;1772840;81;21362;-40
2022/01/24 09:50:57;;;;;;;13.22;7.45;;;;;;;-4.11;62.23;101025.47;1774088;79;21117;-40
2022/01/24 09:53:25;;;;;;;13.60;7.30;;;;;;;-3.99;61.99;101021.06;1772571;79;21009;-40
2022/01/24 09:55:51;;;;;;;14.07;7.92;;;;;;;-3.89;61.69;101014.42;1738178;82;21481;-40
2022/01/24 09:58:18;;;;;;;14.33;8.23;;;;;;;-3.86;61.56;101012.64;1734731;81;21116;-40
2022/01/24 10:00:46;;;;;;;10.95;7.67;;;;;;;-3.79;61.70;101012.86;1776661;79;21022;-40
2022/01/24 10:03:13;;;;;;;14.68;7.80;;;;;;;-3.68;61.19;101006.77;1785318;79;21175;-40
2022/01/24 10:05:42;;;;;;;12.88;7.83;;;;;;;-3.65;61.04;101006.34;1775136;79;21545;-40
2022/01/24 10:08:16;;;;;;;16.27;7.70;;;;;;;-3.62;60.75;101005.88;1775044;79;21077;-40
2022/01/24 10:10:48;;;;;;;14.83;9.40;;;;;;;-3.62;60.74;100997.92;1775024;79;21085;-40
2022/01/24 10:16:25;;;;;;;15.88;10.05;;;;;;;-3.67;60.66;101008.91;1738699;82;21129;-40
2022/01/24 10:19:19;;;;;;;18.40;11.48;;;;;;;-3.65;60.83;101001.55;1739201;82;20973;-40
2022/01/24 10:21:52;;;;;;;20.08;10.95;;;;;;;-3.59;60.78;101000.14;1767353;80;21009;-40
2022/01/24 10:24:48;;;;;;;18.20;11.85;;;;;;;-3.55;60.84;100994.67;1733359;80;20978;-40
2022/01/24 10:27:28;;;;;;;20.65;12.25;;;;;;;-3.41;60.96;100992.63;1742959;82;21529;-40
2022/01/24 10:30:12;;;;;;;18.30;11.75;;;;;;;-3.26;60.28;100985.56;1748830;82;21796;-40
2022/01/24 10:32:48;;;;;;;20.90;12.03;;;;;;;-3.21;59.93;100983.84;1746425;82;21560;-40
2022/01/24 10:35:44;;;;;;;18.90;11.63;;;;;;;-3.20;60.06;100988.11;1748772;82;21536;-40
2022/01/24 10:38:41;;;;;;;17.85;11.50;;;;;;;-3.11;60.00;100982.75;1740065;80;21100;-40
2022/01/24 10:41:08;;;;;;;20.50;11.15;;;;;;;-3.05;59.69;100970.94;1750777;81;21044;-40
2022/01/24 10:43:36;;;;;;;18.75;12.47;;;;;;;-2.98;59.47;100972.42;1752402;81;21613;-40
2022/01/24 10:46:03;;;;;;;19.40;11.60;;;;;;;-2.92;59.14;100955.59;1743864;81;21012;-39
2022/01/24 10:48:34;;;;;;;19.00;12.05;;;;;;;-2.88;59.07;100954.59;1751237;81;20988;-40
2022/01/24 10:51:09;;;;;;;19.75;12.78;;;;;;;-2.85;59.57;100948.81;1743157;81;20957;-39
2022/01/24 10:53:54;;;;;;;22.80;13.53;;;;;;;-2.71;59.16;100943.58;1726297;82;21028;-39
2022/01/24 10:56:32;;;;;;;22.98;12.60;;;;;;;-2.60;59.03;100952.53;1752239;81;21144;-40
2022/01/24 10:59:14;;;;;;;22.48;13.13;;;;;;;-2.63;58.51;100940.55;1733195;82;20992;-40
2022/01/24 11:01:46;;;;;;;25.80;15.28;;;;;;;-2.59;58.78;100940.36;1737810;81;21045;-40
2022/01/24 11:04:15;;;;;;;22.98;14.10;;;;;;;-2.51;58.50;100928.05;1711939;81;20949;-41
2022/01/24 11:06:44;;;;;;;21.52;12.47;;;;;;;-2.39;58.81;100928.83;1754202;81;21048;-40
2022/01/24 11:09:28;;;;;;;22.50;14.28;;;;;;;-2.18;58.22;100929.23;1746220;81;21194;-43
2022/01/24 11:12:12;;;;;;;20.15;12.45;;;;;;;-2.05;57.38;100931.59;1754642;81;21006;-43
2022/01/24 11:14:40;;;;;;;21.82;13.22;;;;;;;-2.00;57.52;100928.52;1734438;81;21011;-43
2022/01/24 11:17:12;;;;;;;19.70;12.70;;;;;;;-1.87;57.33;100932.71;1734352;82;21035;-40
2022/01/24 11:19:45;;;;;;;22.30;12.78;;;;;;;-1.70;56.82;100925.58;1733211;82;21070;-40
2022/01/24 11:22:25;;;;;;;19.00;12.00;;;;;;;-1.66;56.29;100920.59;1730876;82;21582;-40
2022/01/24 11:24:45;;;;;;;20.20;12.78;;;;;;;-1.66;56.01;100918.73;1725783;82;21099;-41
2022/01/24 11:27:09;;;;;;;20.90;12.95;;;;;;;-1.64;56.29;100916.62;1651423;84;21119;-40
2022/01/24 11:29:37;;;;;;;22.90;13.20;;;;;;;-1.64;56.12;100911.83;1713977;82;21063;-40
2022/01/24 11:32:16;;;;;;;19.90;12.80;;;;;;;-1.55;56.15;100911.73;1733488;82;21044;-40
2022/01/24 11:34:49;;;;;;;21.33;11.97;;;;;;;-1.47;55.80;100909.47;1725791;82;21106;-40
2022/01/24 11:37:39;;;;;;;16.32;11.25;;;;;;;-1.37;55.64;100904.31;1703555;82;21042;-40
2022/01/24 11:40:14;;;;;;;20.23;13.22;;;;;;;-1.26;55.61;100903.95;1728238;82;21043;-41
2022/01/24 11:42:44;;;;;;;20.17;12.00;;;;;;;-1.22;54.85;100909.58;1710145;82;21676;-40
2022/01/24 11:45:15;;;;;;;17.98;11.03;;;;;;;-1.21;55.04;100902.66;1724469;82;21051;-40
2022/01/24 11:47:43;;;;;;;15.53;10.55;;;;;;;-1.21;54.38;100905.88;1733347;82;21574;-40
2022/01/24 11:50:36;;;;;;;17.40;11.48;;;;;;;-1.26;54.59;100897.81;1712961;82;21032;-40
2022/01/24 11:53:00;;;;;;;;;;;;;;;-1.23;54.64;100901.31;1706361;84;21039;-41
2022/01/24 11:55:35;;;;;;;16.32;10.43;;;;;;;-1.16;54.27;100886.00;1674313;81;20488;-40
2022/01/24 11:58:04;;;;;;;18.55;10.80;;;;;;;-1.12;54.13;100895.09;1732399;82;21028;-41
2022/01/24 12:00:44;;;;;;;17.00;10.03;;;;;;;-0.97;54.16;100896.64;1730681;82;21826;-41
2022/01/24 12:03:28;;;;;;;15.53;9.00;;;;;;;-0.56;53.41;100893.43;1724320;82;21052;-41
2022/01/24 12:06:09;;;;;;;11.22;7.60;;;;;;;-0.56;53.41;100893.43;1728247;81;21539;-41
2022/01/24 12:08:38;;;;;;;13.70;9.00;;;;;;;-0.50;52.27;100896.44;1722958;81;21038;-41
2022/01/24 12:11:21;;;;;;;13.38;8.18;;;;;;;-0.52;51.64;100890.54;1729858;82;21099;-41
2022/01/24 12:14:01;;;;;;;13.72;7.60;;;;;;;-0.66;52.01;100878.66;1733410;82;21707;-41
2022/01/24 12:16:39;;;;;;;13.88;7.97;;;;;;;-0.80;52.11;100881.41;1745148;81;20938;-40
2022/01/24 12:19:06;;;;;;;13.83;6.95;;;;;;;-0.94;52.43;100880.16;1742005;82;21048;-40
2022/01/24 12:21:36;;;;;;;11.75;7.62;;;;;;;-1.10;52.67;100873.83;1719891;82;21051;-41
2022/01/24 12:24:09;;;;;;;11.88;7.28;;;;;;;-1.17;53.07;100874.54;1709596;82;21068;-41
2022/01/24 12:26:48;;;;;;;11.00;7.17;;;;;;;-1.12;53.09;100865.82;1733032;82;21883;-41
2022/01/24 12:31:08;;;;;;;11.68;7.58;;;;;;;-0.86;52.91;100867.75;1808409;79;23598;-40
2022/01/24 12:33:43;;;;;;;15.38;7.83;;;;;;;-0.78;52.05;100866.01;1768343;80;20953;-41
2022/01/24 12:36:14;;;;;;;11.57;7.22;;;;;;;-0.80;52.20;100868.63;1777868;80;21124;-40
2022/01/24 12:38:52;;;;;;;11.65;7.42;;;;;;;-0.83;52.11;100872.59;1777675;80;20961;-40
2022/01/24 12:41:36;;;;;;;13.48;8.48;;;;;;;-0.96;52.16;100864.95;1761204;80;21521;-40
2022/01/24 12:44:12;;;;;;;10.35;6.17;;;;;;;-1.14;52.77;100866.58;1754503;81;20950;-40
2022/01/24 12:46:27;;;;;;;11.38;7.12;;;;;;;-1.28;53.13;100862.66;1771148;80;20984;-40
2022/01/24 12:48:56;;;;;;;11.93;8.30;;;;;;;-1.38;53.39;100868.11;1777874;80;21123;-40
2022/01/24 12:51:24;;;;;;;13.60;8.13;;;;;;;-1.52;53.49;100870.83;1777705;80;21519;-41
2022/01/24 12:53:51;;;;;;;10.88;7.37;;;;;;;-1.67;53.78;100871.92;1777946;80;20968;-41
2022/01/24 12:56:18;;;;;;;12.93;7.33;;;;;;;-1.79;54.47;100867.99;1782531;80;21015;-40
2022/01/24 12:58:48;;;;;;;11.53;7.10;;;;;;;-1.81;54.62;100867.45;1787977;80;21546;-40
2022/01/24 13:01:30;;;;;;;11.15;7.17;;;;;;;-1.80;54.75;100868.25;1788164;80;21107;-41
2022/01/24 13:04:12;;;;;;;12.47;7.45;;;;;;;-1.81;54.78;100859.99;1788237;80;21496;-40
2022/01/24 13:06:39;;;;;;;11.93;7.60;;;;;;;-1.93;55.01;100863.23;1787803;80;21052;-40